sensor_id;sensor_type;location;lat;lon;timestamp;P1;durP1;ratioP1;P2;durP2;ratioP2
16612;SDS011;8419;52.358;9.752;2023-07-24T00:02:32;1.37;;;1.20;;
16612;SDS011;8419;52.358;9.752;2023-07-24T00:05:17;1.00;;;0.90;;
16612;SDS011;8419;52.358;9.752;2023-07-24T00:08:04;0.80;;;0.80;;
16612;SDS011;8419;52.358;9.752;2023-07-24T00:10:50;1.85;;;1.17;;
16612;SDS011;8419;52.358;9.752;2023-07-24T00:13:37;0.95;;;0.93;;
16612;SDS011;8419;52.358;9.752;2023-07-24T00:16:23;1.30;;;1.20;;
16612;SDS011;8419;52.358;9.752;2023-07-24T00:19:08;1.42;;;1.33;;
16612;SDS011;8419;52.358;9.752;2023-07-24T00:21:54;1.42;;;1.33;;
16612;SDS011;8419;52.358;9.752;2023-07-24T00:24:40;1.33;;;1.20;;
16612;SDS011;8419;52.358;9.752;2023-07-24T00:27:25;1.23;;;1.10;;
16612;SDS011;8419;52.358;9.752;2023-07-24T00:30:12;1.20;;;1.10;;
16612;SDS011;8419;52.358;9.752;2023-07-24T00:32:57;1.35;;;1.25;;
16612;SDS011;8419;52.358;9.752;2023-07-24T00:35:43;1.90;;;1.35;;
16612;SDS011;8419;52.358;9.752;2023-07-24T00:38:28;1.80;;;1.37;;
16612;SDS011;8419;52.358;9.752;2023-07-24T00:41:14;1.40;;;1.30;;
16612;SDS011;8419;52.358;9.752;2023-07-24T00:43:59;1.37;;;1.25;;
16612;SDS011;8419;52.358;9.752;2023-07-24T00:46:45;1.45;;;1.35;;
16612;SDS011;8419;52.358;9.752;2023-07-24T00:49:30;1.65;;;1.40;;
16612;SDS011;8419;52.358;9.752;2023-07-24T00:52:16;1.40;;;1.30;;
16612;SDS011;8419;52.358;9.752;2023-07-24T00:55:02;1.60;;;1.50;;
16612;SDS011;8419;52.358;9.752;2023-07-24T00:57:48;1.70;;;1.60;;
16612;SDS011;8419;52.358;9.752;2023-07-24T01:00:36;2.97;;;1.70;;
16612;SDS011;8419;52.358;9.752;2023-07-24T01:03:23;1.77;;;1.62;;
16612;SDS011;8419;52.358;9.752;2023-07-24T01:06:16;2.00;;;1.80;;
16612;SDS011;8419;52.358;9.752;2023-07-24T01:09:01;2.30;;;1.80;;
16612;SDS011;8419;52.358;9.752;2023-07-24T01:11:47;2.60;;;1.25;;
16612;SDS011;8419;52.358;9.752;2023-07-24T01:14:42;2.28;;;1.77;;
16612;SDS011;8419;52.358;9.752;2023-07-24T01:17:31;2.12;;;1.92;;
16612;SDS011;8419;52.358;9.752;2023-07-24T01:20:18;2.17;;;1.98;;
16612;SDS011;8419;52.358;9.752;2023-07-24T01:23:13;2.25;;;2.00;;
16612;SDS011;8419;52.358;9.752;2023-07-24T01:26:07;1.80;;;1.70;;
16612;SDS011;8419;52.358;9.752;2023-07-24T01:28:54;2.40;;;2.20;;
16612;SDS011;8419;52.358;9.752;2023-07-24T01:31:40;2.37;;;1.87;;
16612;SDS011;8419;52.358;9.752;2023-07-24T01:34:26;3.17;;;2.17;;
16612;SDS011;8419;52.358;9.752;2023-07-24T01:37:12;2.00;;;1.65;;
16612;SDS011;8419;52.358;9.752;2023-07-24T01:39:58;2.65;;;2.45;;
16612;SDS011;8419;52.358;9.752;2023-07-24T01:42:45;3.17;;;2.70;;
16612;SDS011;8419;52.358;9.752;2023-07-24T01:45:32;3.03;;;2.50;;
16612;SDS011;8419;52.358;9.752;2023-07-24T01:48:18;2.45;;;2.25;;
16612;SDS011;8419;52.358;9.752;2023-07-24T01:51:03;3.37;;;2.60;;
16612;SDS011;8419;52.358;9.752;2023-07-24T01:53:49;4.03;;;2.58;;
16612;SDS011;8419;52.358;9.752;2023-07-24T01:56:35;4.75;;;2.45;;
16612;SDS011;8419;52.358;9.752;2023-07-24T01:59:24;3.28;;;2.50;;
16612;SDS011;8419;52.358;9.752;2023-07-24T02:02:09;3.33;;;2.37;;
16612;SDS011;8419;52.358;9.752;2023-07-24T02:04:55;3.00;;;2.47;;
16612;SDS011;8419;52.358;9.752;2023-07-24T02:07:41;2.75;;;2.35;;
16612;SDS011;8419;52.358;9.752;2023-07-24T02:10:26;2.62;;;2.42;;
16612;SDS011;8419;52.358;9.752;2023-07-24T02:13:12;3.20;;;2.20;;
16612;SDS011;8419;52.358;9.752;2023-07-24T02:15:58;2.92;;;2.58;;
16612;SDS011;8419;52.358;9.752;2023-07-24T02:18:44;3.15;;;2.75;;
16612;SDS011;8419;52.358;9.752;2023-07-24T02:21:30;3.03;;;2.72;;
16612;SDS011;8419;52.358;9.752;2023-07-24T02:24:17;3.12;;;2.78;;
16612;SDS011;8419;52.358;9.752;2023-07-24T02:27:03;3.20;;;2.70;;
16612;SDS011;8419;52.358;9.752;2023-07-24T02:29:49;3.62;;;2.58;;
16612;SDS011;8419;52.358;9.752;2023-07-24T02:32:35;2.72;;;2.50;;
16612;SDS011;8419;52.358;9.752;2023-07-24T02:35:20;3.58;;;2.47;;
16612;SDS011;8419;52.358;9.752;2023-07-24T02:38:06;3.35;;;2.70;;
16612;SDS011;8419;52.358;9.752;2023-07-24T02:40:52;3.10;;;2.80;;
16612;SDS011;8419;52.358;9.752;2023-07-24T02:43:38;3.17;;;2.30;;
16612;SDS011;8419;52.358;9.752;2023-07-24T02:46:24;3.15;;;2.35;;
16612;SDS011;8419;52.358;9.752;2023-07-24T02:49:13;3.08;;;2.28;;
16612;SDS011;8419;52.358;9.752;2023-07-24T02:51:58;2.90;;;2.70;;
16612;SDS011;8419;52.358;9.752;2023-07-24T02:54:44;3.00;;;2.70;;
16612;SDS011;8419;52.358;9.752;2023-07-24T02:57:29;3.22;;;2.30;;
16612;SDS011;8419;52.358;9.752;2023-07-24T03:00:16;2.70;;;2.50;;
16612;SDS011;8419;52.358;9.752;2023-07-24T03:03:02;3.17;;;2.35;;
16612;SDS011;8419;52.358;9.752;2023-07-24T03:05:47;2.65;;;2.45;;
16612;SDS011;8419;52.358;9.752;2023-07-24T03:08:33;3.30;;;2.65;;
16612;SDS011;8419;52.358;9.752;2023-07-24T03:11:18;2.40;;;2.20;;
16612;SDS011;8419;52.358;9.752;2023-07-24T03:14:05;2.22;;;2.03;;
16612;SDS011;8419;52.358;9.752;2023-07-24T03:16:50;2.37;;;2.15;;
16612;SDS011;8419;52.358;9.752;2023-07-24T03:19:37;2.50;;;1.62;;
16612;SDS011;8419;52.358;9.752;2023-07-24T03:22:22;2.12;;;1.80;;
16612;SDS011;8419;52.358;9.752;2023-07-24T03:25:08;2.12;;;1.83;;
16612;SDS011;8419;52.358;9.752;2023-07-24T03:27:54;2.75;;;1.87;;
16612;SDS011;8419;52.358;9.752;2023-07-24T03:30:39;1.58;;;1.48;;
16612;SDS011;8419;52.358;9.752;2023-07-24T03:33:26;2.65;;;1.85;;
16612;SDS011;8419;52.358;9.752;2023-07-24T03:36:11;1.83;;;1.67;;
16612;SDS011;8419;52.358;9.752;2023-07-24T03:38:57;1.80;;;1.42;;
16612;SDS011;8419;52.358;9.752;2023-07-24T03:41:43;2.10;;;1.80;;
16612;SDS011;8419;52.358;9.752;2023-07-24T03:44:28;1.95;;;1.40;;
16612;SDS011;8419;52.358;9.752;2023-07-24T03:47:14;2.25;;;1.60;;
16612;SDS011;8419;52.358;9.752;2023-07-24T03:50:01;1.73;;;1.62;;
16612;SDS011;8419;52.358;9.752;2023-07-24T03:52:48;2.05;;;1.73;;
16612;SDS011;8419;52.358;9.752;2023-07-24T03:55:34;2.60;;;1.80;;
16612;SDS011;8419;52.358;9.752;2023-07-24T03:58:20;1.90;;;1.65;;
16612;SDS011;8419;52.358;9.752;2023-07-24T04:01:05;2.58;;;1.85;;
16612;SDS011;8419;52.358;9.752;2023-07-24T04:03:51;1.52;;;1.40;;
16612;SDS011;8419;52.358;9.752;2023-07-24T04:06:37;1.60;;;1.50;;
16612;SDS011;8419;52.358;9.752;2023-07-24T04:09:22;1.65;;;1.55;;
16612;SDS011;8419;52.358;9.752;2023-07-24T04:12:08;1.98;;;1.50;;
16612;SDS011;8419;52.358;9.752;2023-07-24T04:14:54;1.98;;;1.80;;
16612;SDS011;8419;52.358;9.752;2023-07-24T04:17:39;2.45;;;1.35;;
16612;SDS011;8419;52.358;9.752;2023-07-24T04:20:26;1.70;;;1.40;;
16612;SDS011;8419;52.358;9.752;2023-07-24T04:23:12;1.70;;;1.55;;
16612;SDS011;8419;52.358;9.752;2023-07-24T04:25:57;1.58;;;1.48;;
16612;SDS011;8419;52.358;9.752;2023-07-24T04:28:43;2.72;;;1.60;;
16612;SDS011;8419;52.358;9.752;2023-07-24T04:31:29;2.78;;;1.40;;
16612;SDS011;8419;52.358;9.752;2023-07-24T04:34:14;2.05;;;1.50;;
16612;SDS011;8419;52.358;9.752;2023-07-24T04:37:00;2.67;;;2.03;;
16612;SDS011;8419;52.358;9.752;2023-07-24T04:39:46;1.62;;;1.30;;
16612;SDS011;8419;52.358;9.752;2023-07-24T04:42:31;1.90;;;1.50;;
16612;SDS011;8419;52.358;9.752;2023-07-24T04:45:17;2.10;;;1.50;;
16612;SDS011;8419;52.358;9.752;2023-07-24T04:48:03;2.17;;;1.67;;
16612;SDS011;8419;52.358;9.752;2023-07-24T04:50:53;2.60;;;1.50;;
16612;SDS011;8419;52.358;9.752;2023-07-24T04:53:39;3.20;;;1.77;;
16612;SDS011;8419;52.358;9.752;2023-07-24T04:56:24;2.50;;;1.90;;
16612;SDS011;8419;52.358;9.752;2023-07-24T04:59:10;2.58;;;1.50;;
16612;SDS011;8419;52.358;9.752;2023-07-24T05:01:56;2.33;;;1.50;;
16612;SDS011;8419;52.358;9.752;2023-07-24T05:04:42;4.05;;;2.70;;
16612;SDS011;8419;52.358;9.752;2023-07-24T05:07:27;3.60;;;1.62;;
16612;SDS011;8419;52.358;9.752;2023-07-24T05:10:13;4.65;;;1.50;;
16612;SDS011;8419;52.358;9.752;2023-07-24T05:12:58;2.10;;;1.90;;
16612;SDS011;8419;52.358;9.752;2023-07-24T05:15:45;4.12;;;1.50;;
16612;SDS011;8419;52.358;9.752;2023-07-24T05:18:31;2.15;;;1.75;;
16612;SDS011;8419;52.358;9.752;2023-07-24T05:21:16;2.42;;;1.67;;
16612;SDS011;8419;52.358;9.752;2023-07-24T05:24:02;2.55;;;1.67;;
16612;SDS011;8419;52.358;9.752;2023-07-24T05:26:48;2.00;;;1.52;;
16612;SDS011;8419;52.358;9.752;2023-07-24T05:29:33;1.48;;;1.33;;
16612;SDS011;8419;52.358;9.752;2023-07-24T05:32:19;4.90;;;1.70;;
16612;SDS011;8419;52.358;9.752;2023-07-24T05:35:05;1.92;;;1.35;;
16612;SDS011;8419;52.358;9.752;2023-07-24T05:37:51;3.03;;;1.42;;
16612;SDS011;8419;52.358;9.752;2023-07-24T05:40:37;1.87;;;1.50;;
16612;SDS011;8419;52.358;9.752;2023-07-24T05:43:23;1.67;;;1.58;;
16612;SDS011;8419;52.358;9.752;2023-07-24T05:46:08;2.15;;;1.73;;
16612;SDS011;8419;52.358;9.752;2023-07-24T05:48:54;3.55;;;1.60;;
16612;SDS011;8419;52.358;9.752;2023-07-24T05:51:41;2.40;;;1.60;;
16612;SDS011;8419;52.358;9.752;2023-07-24T05:54:27;3.85;;;2.20;;
16612;SDS011;8419;52.358;9.752;2023-07-24T05:57:13;3.20;;;1.75;;
16612;SDS011;8419;52.358;9.752;2023-07-24T05:59:58;2.87;;;1.65;;
16612;SDS011;8419;52.358;9.752;2023-07-24T06:02:44;2.87;;;1.87;;
16612;SDS011;8419;52.358;9.752;2023-07-24T06:05:29;5.30;;;1.80;;
16612;SDS011;8419;52.358;9.752;2023-07-24T06:08:15;3.90;;;1.85;;
16612;SDS011;8419;52.358;9.752;2023-07-24T06:11:01;3.10;;;2.00;;
16612;SDS011;8419;52.358;9.752;2023-07-24T06:13:46;3.25;;;1.73;;
16612;SDS011;8419;52.358;9.752;2023-07-24T06:16:32;4.37;;;1.80;;
16612;SDS011;8419;52.358;9.752;2023-07-24T06:19:17;3.72;;;2.15;;
16612;SDS011;8419;52.358;9.752;2023-07-24T06:22:05;3.30;;;2.12;;
16612;SDS011;8419;52.358;9.752;2023-07-24T06:24:52;2.92;;;1.95;;
16612;SDS011;8419;52.358;9.752;2023-07-24T06:27:39;2.53;;;1.65;;
16612;SDS011;8419;52.358;9.752;2023-07-24T06:30:24;2.15;;;1.67;;
16612;SDS011;8419;52.358;9.752;2023-07-24T06:33:11;3.47;;;2.42;;
16612;SDS011;8419;52.358;9.752;2023-07-24T06:35:56;7.90;;;2.00;;
16612;SDS011;8419;52.358;9.752;2023-07-24T06:38:42;3.12;;;1.65;;
16612;SDS011;8419;52.358;9.752;2023-07-24T06:41:28;2.80;;;2.00;;
16612;SDS011;8419;52.358;9.752;2023-07-24T06:44:13;4.60;;;1.90;;
16612;SDS011;8419;52.358;9.752;2023-07-24T06:46:59;3.22;;;2.05;;
16612;SDS011;8419;52.358;9.752;2023-07-24T06:49:45;2.08;;;1.52;;
16612;SDS011;8419;52.358;9.752;2023-07-24T06:52:31;3.75;;;1.85;;
16612;SDS011;8419;52.358;9.752;2023-07-24T06:55:17;2.65;;;1.60;;
16612;SDS011;8419;52.358;9.752;2023-07-24T06:58:03;2.33;;;1.70;;
16612;SDS011;8419;52.358;9.752;2023-07-24T07:00:49;2.33;;;1.60;;
16612;SDS011;8419;52.358;9.752;2023-07-24T07:03:34;2.50;;;1.65;;
16612;SDS011;8419;52.358;9.752;2023-07-24T07:06:20;4.60;;;1.73;;
16612;SDS011;8419;52.358;9.752;2023-07-24T07:09:06;3.60;;;1.95;;
16612;SDS011;8419;52.358;9.752;2023-07-24T07:11:51;3.58;;;1.80;;
16612;SDS011;8419;52.358;9.752;2023-07-24T07:14:37;2.87;;;2.05;;
16612;SDS011;8419;52.358;9.752;2023-07-24T07:17:23;5.75;;;2.20;;
16612;SDS011;8419;52.358;9.752;2023-07-24T07:20:11;1.60;;;1.50;;
16612;SDS011;8419;52.358;9.752;2023-07-24T07:22:57;4.93;;;1.62;;
16612;SDS011;8419;52.358;9.752;2023-07-24T07:25:42;3.37;;;1.90;;
16612;SDS011;8419;52.358;9.752;2023-07-24T07:28:29;2.10;;;1.90;;
16612;SDS011;8419;52.358;9.752;2023-07-24T07:31:15;5.50;;;2.15;;
16612;SDS011;8419;52.358;9.752;2023-07-24T07:34:01;3.20;;;1.75;;
16612;SDS011;8419;52.358;9.752;2023-07-24T07:36:46;11.48;;;2.40;;
16612;SDS011;8419;52.358;9.752;2023-07-24T07:39:32;6.68;;;2.33;;
16612;SDS011;8419;52.358;9.752;2023-07-24T07:42:18;5.25;;;2.33;;
16612;SDS011;8419;52.358;9.752;2023-07-24T07:45:04;5.85;;;2.60;;
16612;SDS011;8419;52.358;9.752;2023-07-24T07:47:51;6.80;;;2.70;;
16612;SDS011;8419;52.358;9.752;2023-07-24T07:50:37;11.80;;;2.78;;
16612;SDS011;8419;52.358;9.752;2023-07-24T07:53:23;13.27;;;2.72;;
16612;SDS011;8419;52.358;9.752;2023-07-24T07:56:09;6.00;;;2.12;;
16612;SDS011;8419;52.358;9.752;2023-07-24T07:58:54;0.30;;;0.30;;
16612;SDS011;8419;52.358;9.752;2023-07-24T08:01:40;1.40;;;0.55;;
16612;SDS011;8419;52.358;9.752;2023-07-24T08:04:26;0.45;;;0.45;;
16612;SDS011;8419;52.358;9.752;2023-07-24T08:07:12;0.10;;;0.10;;
16612;SDS011;8419;52.358;9.752;2023-07-24T08:09:57;1.62;;;0.85;;
16612;SDS011;8419;52.358;9.752;2023-07-24T08:12:43;2.67;;;2.08;;
16612;SDS011;8419;52.358;9.752;2023-07-24T08:15:29;3.15;;;2.10;;
16612;SDS011;8419;52.358;9.752;2023-07-24T08:18:18;2.97;;;1.55;;
16612;SDS011;8419;52.358;9.752;2023-07-24T08:21:03;3.30;;;1.98;;
16612;SDS011;8419;52.358;9.752;2023-07-24T08:23:50;4.37;;;2.40;;
16612;SDS011;8419;52.358;9.752;2023-07-24T08:26:35;2.10;;;1.85;;
16612;SDS011;8419;52.358;9.752;2023-07-24T08:29:22;2.83;;;2.47;;
16612;SDS011;8419;52.358;9.752;2023-07-24T08:32:10;3.10;;;1.90;;
16612;SDS011;8419;52.358;9.752;2023-07-24T08:34:56;3.85;;;1.75;;
16612;SDS011;8419;52.358;9.752;2023-07-24T08:37:42;11.60;;;2.60;;
16612;SDS011;8419;52.358;9.752;2023-07-24T08:40:28;4.03;;;1.95;;
16612;SDS011;8419;52.358;9.752;2023-07-24T08:43:14;3.62;;;1.98;;
16612;SDS011;8419;52.358;9.752;2023-07-24T08:46:01;4.22;;;2.10;;
16612;SDS011;8419;52.358;9.752;2023-07-24T08:48:48;3.33;;;2.55;;
16612;SDS011;8419;52.358;9.752;2023-07-24T08:51:34;2.87;;;2.35;;
16612;SDS011;8419;52.358;9.752;2023-07-24T08:54:20;5.93;;;2.67;;
16612;SDS011;8419;52.358;9.752;2023-07-24T08:57:09;4.37;;;2.78;;
16612;SDS011;8419;52.358;9.752;2023-07-24T08:59:55;3.75;;;3.00;;
16612;SDS011;8419;52.358;9.752;2023-07-24T09:02:42;3.87;;;2.72;;
16612;SDS011;8419;52.358;9.752;2023-07-24T09:05:27;4.50;;;3.15;;
16612;SDS011;8419;52.358;9.752;2023-07-24T09:08:13;4.30;;;3.80;;
16612;SDS011;8419;52.358;9.752;2023-07-24T09:10:59;5.03;;;3.20;;
16612;SDS011;8419;52.358;9.752;2023-07-24T09:13:46;4.65;;;3.70;;
16612;SDS011;8419;52.358;9.752;2023-07-24T09:16:32;3.80;;;3.40;;
16612;SDS011;8419;52.358;9.752;2023-07-24T09:19:17;5.12;;;3.22;;
16612;SDS011;8419;52.358;9.752;2023-07-24T09:22:10;4.62;;;4.12;;
16612;SDS011;8419;52.358;9.752;2023-07-24T09:24:58;4.68;;;3.70;;
16612;SDS011;8419;52.358;9.752;2023-07-24T09:27:44;6.65;;;4.00;;
16612;SDS011;8419;52.358;9.752;2023-07-24T09:30:30;4.37;;;3.47;;
16612;SDS011;8419;52.358;9.752;2023-07-24T09:33:15;4.65;;;3.35;;
16612;SDS011;8419;52.358;9.752;2023-07-24T09:36:01;4.12;;;3.42;;
16612;SDS011;8419;52.358;9.752;2023-07-24T09:38:49;3.97;;;2.37;;
16612;SDS011;8419;52.358;9.752;2023-07-24T09:41:44;3.67;;;2.60;;
16612;SDS011;8419;52.358;9.752;2023-07-24T09:44:34;4.07;;;3.33;;
16612;SDS011;8419;52.358;9.752;2023-07-24T09:47:19;3.75;;;3.45;;
16612;SDS011;8419;52.358;9.752;2023-07-24T09:50:07;4.55;;;3.08;;
16612;SDS011;8419;52.358;9.752;2023-07-24T09:52:53;7.28;;;3.53;;
16612;SDS011;8419;52.358;9.752;2023-07-24T09:55:43;2.65;;;2.33;;
16612;SDS011;8419;52.358;9.752;2023-07-24T09:58:37;4.80;;;3.62;;
16612;SDS011;8419;52.358;9.752;2023-07-24T10:01:24;3.22;;;2.90;;
16612;SDS011;8419;52.358;9.752;2023-07-24T10:04:10;4.03;;;3.45;;
16612;SDS011;8419;52.358;9.752;2023-07-24T10:06:58;4.00;;;3.45;;
16612;SDS011;8419;52.358;9.752;2023-07-24T10:09:44;4.05;;;3.37;;
16612;SDS011;8419;52.358;9.752;2023-07-24T10:12:30;3.50;;;3.10;;
16612;SDS011;8419;52.358;9.752;2023-07-24T10:15:16;4.30;;;3.55;;
16612;SDS011;8419;52.358;9.752;2023-07-24T10:18:03;3.95;;;3.03;;
16612;SDS011;8419;52.358;9.752;2023-07-24T10:20:59;4.43;;;3.28;;
16612;SDS011;8419;52.358;9.752;2023-07-24T10:23:45;3.92;;;2.80;;
16612;SDS011;8419;52.358;9.752;2023-07-24T10:26:31;4.47;;;2.72;;
16612;SDS011;8419;52.358;9.752;2023-07-24T10:29:19;3.08;;;2.47;;
16612;SDS011;8419;52.358;9.752;2023-07-24T10:32:15;3.65;;;2.53;;
16612;SDS011;8419;52.358;9.752;2023-07-24T10:35:07;3.15;;;1.75;;
16612;SDS011;8419;52.358;9.752;2023-07-24T10:37:59;4.25;;;3.20;;
16612;SDS011;8419;52.358;9.752;2023-07-24T10:40:46;3.20;;;1.85;;
16612;SDS011;8419;52.358;9.752;2023-07-24T10:43:40;3.67;;;2.83;;
16612;SDS011;8419;52.358;9.752;2023-07-24T10:46:35;3.17;;;2.87;;
16612;SDS011;8419;52.358;9.752;2023-07-24T10:49:22;3.87;;;2.50;;
16612;SDS011;8419;52.358;9.752;2023-07-24T10:52:09;4.90;;;2.65;;
16612;SDS011;8419;52.358;9.752;2023-07-24T10:54:55;3.75;;;3.37;;
16612;SDS011;8419;52.358;9.752;2023-07-24T10:57:40;5.72;;;3.12;;
16612;SDS011;8419;52.358;9.752;2023-07-24T11:00:26;3.25;;;2.92;;
16612;SDS011;8419;52.358;9.752;2023-07-24T11:03:13;3.45;;;3.15;;
16612;SDS011;8419;52.358;9.752;2023-07-24T11:06:00;4.93;;;3.53;;
16612;SDS011;8419;52.358;9.752;2023-07-24T11:08:51;5.53;;;3.95;;
16612;SDS011;8419;52.358;9.752;2023-07-24T11:11:37;3.75;;;3.22;;
16612;SDS011;8419;52.358;9.752;2023-07-24T11:14:23;4.30;;;3.75;;
16612;SDS011;8419;52.358;9.752;2023-07-24T11:17:09;4.00;;;3.55;;
16612;SDS011;8419;52.358;9.752;2023-07-24T11:20:04;4.50;;;3.60;;
16612;SDS011;8419;52.358;9.752;2023-07-24T11:22:51;3.87;;;3.25;;
16612;SDS011;8419;52.358;9.752;2023-07-24T11:25:37;5.50;;;3.03;;
16612;SDS011;8419;52.358;9.752;2023-07-24T11:28:23;4.05;;;3.67;;
16612;SDS011;8419;52.358;9.752;2023-07-24T11:31:09;5.43;;;3.60;;
16612;SDS011;8419;52.358;9.752;2023-07-24T11:33:57;4.97;;;3.50;;
16612;SDS011;8419;52.358;9.752;2023-07-24T11:36:43;5.47;;;3.78;;
16612;SDS011;8419;52.358;9.752;2023-07-24T11:39:29;4.32;;;3.65;;
16612;SDS011;8419;52.358;9.752;2023-07-24T11:42:15;4.62;;;3.35;;
16612;SDS011;8419;52.358;9.752;2023-07-24T11:45:01;4.28;;;3.85;;
16612;SDS011;8419;52.358;9.752;2023-07-24T11:47:48;4.12;;;3.28;;
16612;SDS011;8419;52.358;9.752;2023-07-24T11:50:41;4.60;;;4.07;;
16612;SDS011;8419;52.358;9.752;2023-07-24T11:53:29;4.75;;;4.07;;
16612;SDS011;8419;52.358;9.752;2023-07-24T11:56:16;3.95;;;3.12;;
16612;SDS011;8419;52.358;9.752;2023-07-24T11:59:10;5.20;;;3.12;;
16612;SDS011;8419;52.358;9.752;2023-07-24T12:01:57;5.82;;;3.60;;
16612;SDS011;8419;52.358;9.752;2023-07-24T12:04:43;4.80;;;4.30;;
16612;SDS011;8419;52.358;9.752;2023-07-24T12:07:29;3.97;;;3.53;;
16612;SDS011;8419;52.358;9.752;2023-07-24T12:10:24;4.65;;;4.15;;
16612;SDS011;8419;52.358;9.752;2023-07-24T12:13:12;5.68;;;4.28;;
16612;SDS011;8419;52.358;9.752;2023-07-24T12:15:57;4.45;;;4.05;;
16612;SDS011;8419;52.358;9.752;2023-07-24T12:18:43;4.47;;;3.30;;
16612;SDS011;8419;52.358;9.752;2023-07-24T12:21:29;6.10;;;3.70;;
16612;SDS011;8419;52.358;9.752;2023-07-24T12:24:14;4.12;;;3.80;;
16612;SDS011;8419;52.358;9.752;2023-07-24T12:27:00;6.93;;;3.62;;
16612;SDS011;8419;52.358;9.752;2023-07-24T12:29:46;3.65;;;3.17;;
16612;SDS011;8419;52.358;9.752;2023-07-24T12:32:32;5.05;;;3.08;;
16612;SDS011;8419;52.358;9.752;2023-07-24T12:35:18;5.60;;;3.60;;
16612;SDS011;8419;52.358;9.752;2023-07-24T12:38:03;3.45;;;3.15;;
16612;SDS011;8419;52.358;9.752;2023-07-24T12:40:49;4.37;;;3.28;;
16612;SDS011;8419;52.358;9.752;2023-07-24T12:43:34;6.85;;;4.18;;
16612;SDS011;8419;52.358;9.752;2023-07-24T12:46:20;4.72;;;3.75;;
16612;SDS011;8419;52.358;9.752;2023-07-24T12:49:05;5.87;;;4.57;;
16612;SDS011;8419;52.358;9.752;2023-07-24T12:51:51;4.60;;;3.62;;
16612;SDS011;8419;52.358;9.752;2023-07-24T12:54:37;4.53;;;4.00;;
16612;SDS011;8419;52.358;9.752;2023-07-24T12:57:22;6.18;;;4.78;;
16612;SDS011;8419;52.358;9.752;2023-07-24T13:00:09;7.85;;;5.32;;
16612;SDS011;8419;52.358;9.752;2023-07-24T13:02:55;5.87;;;4.70;;
16612;SDS011;8419;52.358;9.752;2023-07-24T13:05:41;6.18;;;4.28;;
16612;SDS011;8419;52.358;9.752;2023-07-24T13:08:26;4.47;;;3.75;;
16612;SDS011;8419;52.358;9.752;2023-07-24T13:11:12;4.45;;;4.05;;
16612;SDS011;8419;52.358;9.752;2023-07-24T13:13:58;4.45;;;3.87;;
16612;SDS011;8419;52.358;9.752;2023-07-24T13:16:43;4.62;;;3.87;;
16612;SDS011;8419;52.358;9.752;2023-07-24T13:19:31;5.32;;;4.05;;
16612;SDS011;8419;52.358;9.752;2023-07-24T13:22:17;4.53;;;4.12;;
16612;SDS011;8419;52.358;9.752;2023-07-24T13:25:03;3.85;;;3.30;;
16612;SDS011;8419;52.358;9.752;2023-07-24T13:27:51;5.25;;;3.72;;
16612;SDS011;8419;52.358;9.752;2023-07-24T13:30:39;4.12;;;3.22;;
16612;SDS011;8419;52.358;9.752;2023-07-24T13:33:25;3.72;;;3.42;;
16612;SDS011;8419;52.358;9.752;2023-07-24T13:36:11;4.55;;;3.60;;
16612;SDS011;8419;52.358;9.752;2023-07-24T13:38:58;4.90;;;3.20;;
16612;SDS011;8419;52.358;9.752;2023-07-24T13:41:43;2.90;;;2.60;;
16612;SDS011;8419;52.358;9.752;2023-07-24T13:44:29;2.87;;;2.58;;
16612;SDS011;8419;52.358;9.752;2023-07-24T13:47:15;3.37;;;2.62;;
16612;SDS011;8419;52.358;9.752;2023-07-24T13:50:01;3.67;;;3.10;;
16612;SDS011;8419;52.358;9.752;2023-07-24T13:52:47;3.58;;;2.95;;
16612;SDS011;8419;52.358;9.752;2023-07-24T13:55:33;3.15;;;2.45;;
16612;SDS011;8419;52.358;9.752;2023-07-24T13:58:18;4.60;;;1.67;;
16612;SDS011;8419;52.358;9.752;2023-07-24T14:01:04;2.12;;;1.92;;
16612;SDS011;8419;52.358;9.752;2023-07-24T14:03:51;6.53;;;2.67;;
16612;SDS011;8419;52.358;9.752;2023-07-24T14:06:36;3.30;;;0.82;;
16612;SDS011;8419;52.358;9.752;2023-07-24T14:09:22;2.40;;;1.73;;
16612;SDS011;8419;52.358;9.752;2023-07-24T14:12:09;2.17;;;1.98;;
16612;SDS011;8419;52.358;9.752;2023-07-24T14:14:55;2.40;;;2.00;;
16612;SDS011;8419;52.358;9.752;2023-07-24T14:17:41;2.47;;;2.25;;
16612;SDS011;8419;52.358;9.752;2023-07-24T14:20:26;5.93;;;2.92;;
16612;SDS011;8419;52.358;9.752;2023-07-24T14:23:12;4.07;;;2.00;;
16612;SDS011;8419;52.358;9.752;2023-07-24T14:25:58;1.62;;;1.23;;
16612;SDS011;8419;52.358;9.752;2023-07-24T14:28:44;4.12;;;2.50;;
16612;SDS011;8419;52.358;9.752;2023-07-24T14:31:32;2.08;;;1.65;;
16612;SDS011;8419;52.358;9.752;2023-07-24T14:34:18;3.05;;;2.12;;
16612;SDS011;8419;52.358;9.752;2023-07-24T14:37:04;2.50;;;2.20;;
16612;SDS011;8419;52.358;9.752;2023-07-24T14:39:50;2.75;;;2.33;;
16612;SDS011;8419;52.358;9.752;2023-07-24T14:42:35;1.65;;;1.48;;
16612;SDS011;8419;52.358;9.752;2023-07-24T14:45:25;3.40;;;2.20;;
16612;SDS011;8419;52.358;9.752;2023-07-24T14:48:11;3.50;;;1.90;;
16612;SDS011;8419;52.358;9.752;2023-07-24T14:50:58;3.50;;;3.08;;
16612;SDS011;8419;52.358;9.752;2023-07-24T14:53:45;5.60;;;3.42;;
16612;SDS011;8419;52.358;9.752;2023-07-24T14:56:30;4.90;;;3.40;;
16612;SDS011;8419;52.358;9.752;2023-07-24T14:59:16;4.18;;;3.00;;
16612;SDS011;8419;52.358;9.752;2023-07-24T15:02:02;4.30;;;3.15;;
16612;SDS011;8419;52.358;9.752;2023-07-24T15:04:47;4.32;;;3.05;;
16612;SDS011;8419;52.358;9.752;2023-07-24T15:07:33;4.35;;;3.53;;
16612;SDS011;8419;52.358;9.752;2023-07-24T15:10:18;5.80;;;4.57;;
16612;SDS011;8419;52.358;9.752;2023-07-24T15:13:06;4.25;;;3.58;;
16612;SDS011;8419;52.358;9.752;2023-07-24T15:15:53;4.87;;;3.55;;
16612;SDS011;8419;52.358;9.752;2023-07-24T15:18:39;4.65;;;3.97;;
16612;SDS011;8419;52.358;9.752;2023-07-24T15:21:25;5.25;;;4.18;;
16612;SDS011;8419;52.358;9.752;2023-07-24T15:24:11;6.87;;;4.25;;
16612;SDS011;8419;52.358;9.752;2023-07-24T15:26:57;3.72;;;3.37;;
16612;SDS011;8419;52.358;9.752;2023-07-24T15:29:42;4.10;;;3.10;;
16612;SDS011;8419;52.358;9.752;2023-07-24T15:32:28;3.97;;;3.12;;
16612;SDS011;8419;52.358;9.752;2023-07-24T15:35:14;4.03;;;3.20;;
16612;SDS011;8419;52.358;9.752;2023-07-24T15:38:00;3.12;;;2.65;;
16612;SDS011;8419;52.358;9.752;2023-07-24T15:40:48;3.00;;;2.70;;
16612;SDS011;8419;52.358;9.752;2023-07-24T15:43:33;5.22;;;2.87;;
16612;SDS011;8419;52.358;9.752;2023-07-24T15:46:19;4.00;;;2.67;;
16612;SDS011;8419;52.358;9.752;2023-07-24T15:49:04;2.55;;;2.30;;
16612;SDS011;8419;52.358;9.752;2023-07-24T15:51:50;2.87;;;2.10;;
16612;SDS011;8419;52.358;9.752;2023-07-24T15:54:36;2.37;;;2.00;;
16612;SDS011;8419;52.358;9.752;2023-07-24T15:57:23;2.78;;;1.80;;
16612;SDS011;8419;52.358;9.752;2023-07-24T16:00:10;1.90;;;1.70;;
16612;SDS011;8419;52.358;9.752;2023-07-24T16:02:57;2.60;;;1.98;;
16612;SDS011;8419;52.358;9.752;2023-07-24T16:05:42;1.80;;;1.70;;
16612;SDS011;8419;52.358;9.752;2023-07-24T16:08:28;3.15;;;1.90;;
16612;SDS011;8419;52.358;9.752;2023-07-24T16:11:14;3.50;;;2.00;;
16612;SDS011;8419;52.358;9.752;2023-07-24T16:13:59;2.30;;;2.00;;
16612;SDS011;8419;52.358;9.752;2023-07-24T16:16:45;2.10;;;1.90;;
16612;SDS011;8419;52.358;9.752;2023-07-24T16:19:31;2.70;;;1.95;;
16612;SDS011;8419;52.358;9.752;2023-07-24T16:22:16;2.05;;;1.75;;
16612;SDS011;8419;52.358;9.752;2023-07-24T16:25:02;2.05;;;1.73;;
16612;SDS011;8419;52.358;9.752;2023-07-24T16:27:48;2.08;;;1.87;;
16612;SDS011;8419;52.358;9.752;2023-07-24T16:30:34;1.42;;;1.25;;
16612;SDS011;8419;52.358;9.752;2023-07-24T16:33:19;1.73;;;1.60;;
16612;SDS011;8419;52.358;9.752;2023-07-24T16:36:05;2.12;;;1.80;;
16612;SDS011;8419;52.358;9.752;2023-07-24T16:38:51;2.00;;;1.80;;
16612;SDS011;8419;52.358;9.752;2023-07-24T16:41:38;1.65;;;1.52;;
16612;SDS011;8419;52.358;9.752;2023-07-24T16:44:23;2.17;;;1.92;;
16612;SDS011;8419;52.358;9.752;2023-07-24T16:47:09;1.73;;;1.62;;
16612;SDS011;8419;52.358;9.752;2023-07-24T16:49:54;3.55;;;1.58;;
16612;SDS011;8419;52.358;9.752;2023-07-24T16:52:40;2.05;;;1.60;;
16612;SDS011;8419;52.358;9.752;2023-07-24T16:55:26;3.17;;;1.80;;
16612;SDS011;8419;52.358;9.752;2023-07-24T16:58:11;2.03;;;1.70;;